Date,TemperatureHighF,TemperatureAvgF,TemperatureLowF,DewpointHighF,DewpointAvgF,DewpointLowF,HumidityHigh,HumidityAvg,HumidityLow,PressureMaxIn,PressureMinIn,WindSpeedMaxMPH,WindSpeedAvgMPH,GustSpeedMaxMPH,PrecipitationSumIn
2013-5-1,88.5,76.2,66.3,72.7,65.0,55.0,80,69,56,29.87,29.76,11,1,11,0.00
2013-5-2,78.5,66.1,50.7,68.3,56.1,42.8,76,70,66,30.18,29.86,25,3,25,0.00
2013-5-3,69.6,56.3,47.0,43.4,40.1,35.4,81,58,31,30.20,30.04,24,4,24,0.00
2013-5-4,83.0,63.1,42.3,56.2,47.1,35.5,82,59,32,30.07,29.84,15,1,15,0.00
2013-5-5,74.8,63.0,52.8,53.5,49.7,44.7,80,63,44,30.08,29.93,15,1,15,0.00
2013-5-6,78.7,63.6,46.7,62.2,52.2,39.3,81,68,47,30.10,29.95,7,0,7,0.00
2013-5-7,88.0,70.9,53.2,65.8,56.9,44.4,79,63,42,30.05,29.92,11,0,11,0.00
2013-5-8,84.3,72.1,58.1,68.7,61.2,48.8,80,69,52,30.03,29.92,13,2,13,0.00
2013-5-9,80.7,74.6,67.7,72.3,65.9,58.5,78,74,67,29.96,29.81,16,2,16,0.00
2013-5-10,81.8,73.2,64.6,72.1,63.3,54.2,78,71,66,30.01,29.79,18,1,18,2.14
2013-5-11,86.8,74.0,64.1,72.5,61.9,53.7,76,66,54,30.06,29.90,10,1,12,0.00
2013-5-12,83.6,72.5,63.1,66.4,60.1,56.8,81,66,44,30.15,30.03,13,0,13,0.00
2013-5-13,83.8,70.3,55.5,66.3,59.3,47.4,81,69,51,30.25,30.14,11,1,11,0.00
2013-5-14,83.2,71.2,58.7,71.7,61.9,49.8,80,73,64,30.20,30.06,13,1,13,0.00
2013-5-15,81.8,72.5,67.7,72.4,63.4,57.2,78,73,68,30.11,29.88,15,2,16,0.06
2013-5-16,85.8,76.6,69.3,74.8,67.3,58.6,77,73,68,29.92,29.77,18,2,18,0.00
2013-5-17,89.5,79.3,72.0,78.3,69.4,60.9,78,72,68,29.91,29.80,15,2,15,0.00
2013-5-18,91.8,81.0,74.6,76.8,69.9,63.3,78,69,56,29.92,29.84,14,2,14,0.00
2013-5-19,89.8,81.0,75.2,75.8,71.2,66.3,79,72,59,29.87,29.76,20,3,20,0.00
2013-5-20,88.8,81.5,77.1,77.3,73.0,68.3,79,75,67,29.86,29.73,13,3,17,0.00
2013-5-21,89.2,81.6,76.8,78.2,72.5,67.1,79,74,66,29.83,29.68,16,2,16,0.00
2013-5-22,92.0,81.2,73.9,79.7,71.4,64.3,77,72,66,29.89,29.76,14,1,14,0.02
2013-5-23,89.1,80.7,72.7,77.5,70.5,61.4,78,71,67,30.02,29.86,11,1,11,0.00
2013-5-24,88.8,80.5,75.2,77.2,70.4,63.9,78,71,66,30.09,29.97,14,1,14,0.00
2013-5-25,84.3,78.3,73.0,74.8,68.8,62.2,78,73,69,30.11,30.01,14,1,14,0.00
2013-5-26,89.8,80.5,73.8,75.6,69.4,63.0,79,69,57,30.07,29.97,12,1,12,0.00
2013-5-27,88.5,80.1,72.7,76.7,70.0,62.4,78,72,66,30.01,29.88,16,2,16,0.00
2013-5-28,88.0,79.7,72.8,76.5,70.1,62.5,78,73,64,29.93,29.82,18,3,18,0.00
2013-5-29,86.5,79.9,74.8,77.1,71.5,65.6,79,75,71,29.86,29.76,18,3,18,0.00
2013-5-30,89.1,81.4,75.4,79.0,72.3,65.3,78,74,69,29.84,29.76,14,3,17,0.03
2013-5-31,92.9,83.7,76.8,79.1,72.8,65.4,78,70,61,29.86,29.78,15,2,15,0.01